Tiempo atmosférico en la estación meteorológica de Carmona, Sevilla (50 m.)



Fecha
DESCASC
Temp. máxima en grados centígrados (hora)
DESCASC
Temp. mínima en grados centígrados (hora)
DESCASC
Temp. media en grados centígrados
DESCASC
Racha de viento máxima en m/sg (hora)
DESCASC
Velocidad máxima media en intervalos de 10 minutos(hora)
DESCASC
Precipitaciones diarias en mm
DESCASC
Precipitaciones de 00:00 a 06:00 en mm
DESCASC
Precipitaciones de 06:00 a 12:00 en mm
DESCASC
Precipitaciones de 12:00 a 18:00 en mm
DESCASC
Precipitaciones de 18:00 a 24:00 en mm
DESCASC
05-12-2019 17.8 (15:10) 5.6 (06:50) 11.7 10.83 (13:50) 7.5 (13:40) 0 0 0 0 0
04-12-2019 16.4 (15:00) 8.1 (23:50) 12.3 6.67 (18:30) 3.06 (16:10) 0 0 0 0 0
03-12-2019 18.9 (14:40) 7.9 (05:50) 13.4 7.22 (13:20) 4.72 (12:40) 0 0 0 0 0
02-12-2019 16.8 (15:20) 10.5 (00:00) 13.6 11.39 (11:50) 7.5 (12:00) 0.4 0.2 0 0.2 0
01-12-2019 15 (16:10) 10.3 (00:00) 12.7 7.5 (13:20) 5 (13:20) 1.2 0 0 0.8 0.4
30-11-2019 19.5 (15:30) 8.9 (00:00) 14.2 6.39 (23:30) 3.89 (23:40) 0 0 0 0 0
29-11-2019 19.6 (16:00) 8.6 (00:00) 14.1 4.44 (11:00) 3.06 (11:00) 0 0 0 0 0
28-11-2019 18.9 (16:40) 10.5 (02:40) 14.7 4.44 (11:40) 3.06 (11:20) 0 0 0 0 0
27-11-2019 18 (17:00) 12.7 (00:00) 15.3 10 (00:10) 6.11 (00:10) 0 0 0 0 0
26-11-2019 17.7 (17:30) 13.6 (00:00) 15.7 10 (23:59) 6.39 (23:59) 1.6 0 0 0.8 0.8
25-11-2019 16.9 (16:00) 11.3 (00:20) 14.1 6.11 (15:50) 3.89 (16:00) 4.4 0 1.8 2.4 0.2
24-11-2019 16.9 (16:30) 5.5 (00:00) 11.2 6.94 (16:20) 3.89 (16:20) 0 0 0 0 0
23-11-2019 17.6 (15:10) 9.6 (00:00) 13.6 11.11 (12:10) 7.5 (12:10) 0 0 0 0 0
22-11-2019 18 (17:00) 13.1 (00:00) 15.6 16.94 (17:00) 10.83 (17:10) 24.2 0 1 23 0.2
21-11-2019 14.6 (17:30) 9.8 (00:00) 12.2 3.61 (11:20) 2.5 (10:30) 10.8 0.2 6 3.8 0.8
20-11-2019 10.2 (20:50) 4.8 (05:20) 7.5 7.22 (11:30) 5 (13:50) 6.2 0 0.8 0.2 5.2
19-11-2019 15.7 (16:20) 4.5 (00:00) 10.1 5.28 (11:40) 3.89 (11:40) 0 0 0 0 0
18-11-2019 18.4 (15:40) 7.2 (00:00) 12.8 7.78 (01:00) 4.72 (01:10) 2 2 0 0 0
17-11-2019 12.5 (23:59) 3 (00:00) 7.8 5.28 (23:59) 2.78 (23:59) 2.2 0 1.4 0.4 0.4
16-11-2019 15.7 (17:00) 3.9 (00:00) 9.8 5 (16:20) 3.33 (19:20) 0 0 0 0 0
15-11-2019 13.7 (13:50) 6.2 (00:00) 9.9 8.61 (12:00) 5.83 (01:10) 0 0 0 0 0
14-11-2019 15.3 (14:50) 9.1 (00:00) 12.2 13.33 (13:50) 7.5 (15:10) 0.2 0 0 0.2 0
13-11-2019 22.3 (16:10) 12.5 (00:00) 17.4 11.94 (11:50) 8.61 (12:00) 0 0 0 0 0
12-11-2019 20.8 (15:00) 8 (00:00) 14.4 8.61 (13:30) 5.56 (15:20) 0 0 0 0 0
11-11-2019 17.9 (17:30) 11.9 (23:59) 14.9 5 (15:00) 3.61 (14:50) 0 0 0 0 0
10-11-2019 18.9 (14:30) 9.8 (00:00) 14.3 11.39 (16:00) 7.5 (15:30) 0 0 0 0 0
09-11-2019 18.7 (16:10) 4.4 (00:00) 11.6 7.78 (23:40) 5.28 (23:50) 0 0 0 0 0
08-11-2019 19.1 (16:00) 7.8 (07:50) 13.5 8.61 (13:30) 5.28 (12:20) 0 0 0 0 0
07-11-2019 20.6 (15:30) 10.6 (00:00) 15.6 9.72 (14:00) 6.11 (14:00) 1.8 0.2 1.6 0 0
06-11-2019 20.5 (16:00) 7.7 (00:00) 14.1 7.22 (14:40) 4.44 (14:40) 0 0 0 0 0

Gráficas

Temp. máximas Temp. mínimas Temp. medias Precipitaciones Rachas de viento máximas Velocidades máximas media en intervalos de 10 minutos

Datos horarios

Fecha y hora oficial Temperatura (ºC) Velocidad del viento (km/h) Dirección del viento Racha (km/h) Dirección de racha Precipitación (mm) Presión (hPa) Tendencia (hPa) Humedad (%)
2019-12-05 23:00:00 10 6 Norte 12 Este 0 -- -- 81
2019-12-05 22:00:00 10.1 11 Sudeste 13 Sudeste 0 -- -- 82
2019-12-05 21:00:00 10.4 6 Este 9 Nordeste 0 -- -- 78
2019-12-05 20:00:00 11.5 8 Nordeste 10 Nordeste 0 -- -- 73
2019-12-05 19:00:00 13.1 8 Nordeste 15 Nordeste 0 -- -- 67
2019-12-05 18:00:00 15.3 9 Nordeste 26 Nordeste 0 -- -- 60
2019-12-05 17:00:00 16.7 14 Nordeste 32 Este 0 -- -- 55
2019-12-05 16:00:00 17.6 21 Este 34 Este 0 -- -- 50
2019-12-05 15:00:00 17.6 19 Este 37 Este 0 -- -- 51
2019-12-05 14:00:00 16.9 23 Este 39 Este 0 -- -- 55
2019-12-05 13:00:00 16.2 17 Este 29 Este 0 -- -- 64
2019-12-05 12:00:00 13.6 7 Este 12 Este 0 -- -- 74
2019-12-05 11:00:00 9.3 3 Este 12 Este 0 -- -- 85
2019-12-05 10:00:00 7.9 5 Este 12 Nordeste 0 -- -- 91
2019-12-05 09:00:00 6.6 6 Nordeste 13 Este 0 -- -- 91
2019-12-05 08:00:00 5.6 7 Este 12 Nordeste 0 -- -- 92
2019-12-05 07:00:00 5.6 8 Nordeste 12 Nordeste 0 -- -- 91
2019-12-05 06:00:00 6.2 5 Sudeste 13 Este 0 -- -- 91
2019-12-05 05:00:00 5.9 9 Este 12 Este 0 -- -- 92
2019-12-05 04:00:00 5.9 8 Este 9 Este 0 -- -- 90
2019-12-05 03:00:00 6.5 4 Sudeste 5 Sudeste 0 -- -- 90
2019-12-05 02:00:00 6.8 4 Este 5 Norte 0 -- -- 89
2019-12-05 01:00:00 7.5 3 Norte 5 Norte 0 -- -- 87
2019-12-05 00:00:00 8.1 2 Nordeste 9 Norte 0 -- -- 86
2019-12-04 23:00:00 9.2 5 Sur 8 Sudoeste 0 -- -- 82
2019-12-04 22:00:00 10.2 5 Sudoeste 8 Sudoeste 0 -- -- 79
2019-12-04 21:00:00 10.6 0 Calma 10 Norte 0 -- -- 77
2019-12-04 20:00:00 10.6 9 Sur 12 Sur 0 -- -- 74
2019-12-04 19:00:00 12 8 Sudoeste 24 Sudoeste 0 -- -- 66
2019-12-04 18:00:00 14 5 Sur 14 Sudoeste 0 -- -- 66
2019-12-04 17:00:00 15.3 10 Sudoeste 17 Sudoeste 0 -- -- 57
2019-12-04 16:00:00 15.7 9 Sudoeste 15 Oeste 0 -- -- 54
2019-12-04 15:00:00 16.4 9 Oeste 15 Oeste 0 -- -- 57
2019-12-04 14:00:00 15.9 4 Sudoeste 11 Sudoeste 0 -- -- 57
2019-12-04 13:00:00 15.5 3 Sudeste 12 Sudeste 0 -- -- 60
2019-12-04 12:00:00 14.3 6 Sudeste 14 Este 0 -- -- 65
2019-12-04 11:00:00 12.6 9 Este 16 Este 0 -- -- 76
2019-12-04 10:00:00 10.7 0 Calma 4 Nordeste 0 -- -- 93
2019-12-04 09:00:00 8.5 0 Calma 5 Sudeste 0 -- -- 90
2019-12-04 08:00:00 9.3 3 Sudeste 5 Sudeste 0 -- -- 90
2019-12-04 07:00:00 9.3 0 Calma 4 Nordeste 0 -- -- 88
2019-12-04 06:00:00 10.6 4 Este 5 Este 0 -- -- 87
2019-12-04 05:00:00 10.8 3 Norte 6 Noroeste 0 -- -- 86
2019-12-04 04:00:00 10.7 2 Norte 4 Sur 0 -- -- 87
2019-12-04 03:00:00 10.4 3 Sur 6 Sur 0 -- -- 86
2019-12-04 02:00:00 10.9 4 Este 8 Norte 0 -- -- 82
2019-12-04 01:00:00 11.6 3 Nordeste 7 Norte 0 -- -- 80
2019-12-04 00:00:00 11.7 6 Norte 9 Norte 0 -- -- 79
2019-12-03 23:00:00 11.9 5 Nordeste 10 Norte 0 -- -- 78
2019-12-03 22:00:00 11.5 8 Noroeste 11 Norte 0 -- -- 78
2019-12-03 21:00:00 12.5 9 Nordeste 10 Nordeste 0 -- -- 74
2019-12-03 20:00:00 13.2 9 Norte 10 Norte 0 -- -- 73
2019-12-03 19:00:00 14.2 2 Sur 7 Sudeste 0 -- -- 71
2019-12-03 18:00:00 15.7 6 Sudeste 13 Este 0 -- -- 66
2019-12-03 17:00:00 17.8 12 Este 19 Este 0 -- -- 52
2019-12-03 16:00:00 18.8 11 Este 21 Este 0 -- -- 50
2019-12-03 15:00:00 18.8 10 Este 18 Este 0 -- -- 50
2019-12-03 14:00:00 18.3 13 Este 26 Este 0 -- -- 51
2019-12-03 13:00:00 17.6 14 Este 26 Este 0 -- -- 53
2019-12-03 12:00:00 16.8 8 Nordeste 17 Nordeste 0 -- -- 57
2019-12-03 11:00:00 14.8 6 Nordeste 18 Norte 0 -- -- 64
2019-12-03 10:00:00 11.5 9 Norte 14 Norte 0 -- -- 77
2019-12-03 09:00:00 8.9 6 Nordeste 12 Norte 0 -- -- 86
2019-12-03 08:00:00 8.4 6 Nordeste 10 Norte 0 -- -- 88
2019-12-03 07:00:00 8.1 8 Norte 10 Norte 0 -- -- 89
2019-12-03 06:00:00 7.9 5 Nordeste 9 Norte 0 -- -- 89
2019-12-03 05:00:00 8.3 5 Nordeste 9 Norte 0 -- -- 88
2019-12-03 04:00:00 8.5 7 Nordeste 9 Nordeste 0 -- -- 89
2019-12-03 03:00:00 8.7 2 Nordeste 6 Nordeste 0 -- -- 89
2019-12-03 02:00:00 9 3 Noroeste 8 Nordeste 0 -- -- 87
2019-12-03 01:00:00 10 6 Nordeste 9 Este 0 -- -- 86
2019-12-03 00:00:00 10.5 8 Este 9 Este 0 -- -- 86
2019-12-02 23:00:00 11.3 4 Este 6 Este 0 -- -- 83
2019-12-02 22:00:00 12 2 Este 9 Norte 0 -- -- 81
2019-12-02 21:00:00 13.1 7 Norte 11 Nordeste 0 -- -- 75
2019-12-02 20:00:00 13.5 9 Este 17 Este 0 -- -- 78
2019-12-02 19:00:00 13.6 7 Este 9 Este 0 -- -- 78
2019-12-02 18:00:00 14.7 5 Este 18 Este 0 -- -- 74
2019-12-02 17:00:00 15.5 7 Este 24 Este 0 -- -- 68
2019-12-02 16:00:00 16 17 Este 31 Este 0 -- -- 65
2019-12-02 15:00:00 16.2 15 Este 28 Este 0 -- -- 68
2019-12-02 14:00:00 15.1 21 Este 35 Este 0.2 -- -- 69
2019-12-02 13:00:00 14.5 21 Este 37 Este 0 -- -- 73
2019-12-02 12:00:00 13.6 27 Este 41 Nordeste 0 -- -- 74
2019-12-02 11:00:00 13.4 21 Este 35 Este 0 -- -- 78
2019-12-02 10:00:00 11.8 18 Este 31 Este 0 -- -- 85
2019-12-02 09:00:00 10.9 17 Este 28 Este 0 -- -- 88
2019-12-02 08:00:00 10.7 13 Este 21 Este 0 -- -- 88
2019-12-02 07:00:00 10.5 13 Este 25 Nordeste 0 -- -- 89
2019-12-02 06:00:00 10.6 15 Este 28 Este 0 -- -- 90
2019-12-02 05:00:00 10.7 15 Este 27 Este 0 -- -- 90
2019-12-02 04:00:00 10.5 14 Este 24 Este 0 -- -- 91
2019-12-02 03:00:00 10.7 13 Este 21 Este 0.2 -- -- 91
2019-12-02 02:00:00 11.1 11 Este 18 Este 0 -- -- 90
2019-12-02 01:00:00 11.7 3 Sur 9 Sudoeste 0 -- -- 89
2019-12-02 00:00:00 11.7 6 Sudoeste 18 Oeste 0 -- -- 88
2019-12-01 23:00:00 12.3 5 Sudoeste 14 Sudoeste 0 -- -- 89
2019-12-01 22:00:00 12.7 8 Sudoeste 19 Sudoeste 0 -- -- 88
2019-12-01 21:00:00 13.1 12 Sudoeste 25 Sudoeste 0 -- -- 88
2019-12-01 20:00:00 13.2 12 Sudoeste 22 Sudoeste 0.2 -- -- 87
2019-12-01 19:00:00 13.7 14 Sudoeste 22 Sudoeste 0.2 -- -- 84
2019-12-01 18:00:00 14.2 11 Sudoeste 24 Sudoeste 0 -- -- 80
2019-12-01 17:00:00 14.7 13 Sudoeste 26 Sudoeste 0 -- -- 79
2019-12-01 16:00:00 14.8 16 Oeste 24 Oeste 0 -- -- 79
2019-12-01 15:00:00 13.9 8 Sudoeste 25 Sudoeste 0.4 -- -- 85
2019-12-01 14:00:00 14.4 17 Sudoeste 27 Sudoeste 0.4 -- -- 82
2019-12-01 13:00:00 13.5 15 Sudoeste 26 Sudoeste 0 -- -- 87
2019-12-01 12:00:00 13.2 6 Noroeste 9 Oeste 0 -- -- 88
2019-12-01 11:00:00 12.4 0 Calma 8 Oeste 0 -- -- 91
2019-12-01 10:00:00 11.5 0 Calma 8 Sudoeste 0 -- -- 93
2019-12-01 09:00:00 10.4 5 Sudoeste 12 Sudoeste 0 -- -- 93
2019-12-01 08:00:00 10.7 10 Sudoeste 16 Sudoeste 0 -- -- 93
2019-12-01 07:00:00 11.3 6 Sudoeste 13 Sudoeste 0 -- -- 92
2019-12-01 06:00:00 12 10 Sudoeste 14 Oeste 0 -- -- 92
2019-12-01 05:00:00 12.6 6 Oeste 10 Sudoeste 0 -- -- 92
2019-12-01 04:00:00 13.1 9 Sudoeste 13 Sudoeste 0 -- -- 91
2019-12-01 03:00:00 13.9 10 Oeste 17 Oeste 0 -- -- 91
2019-12-01 02:00:00 14.3 10 Sudoeste 16 Sudoeste 0 -- -- 91
2019-12-01 01:00:00 14.5 5 Noroeste 18 Sudoeste 0 -- -- 90
2019-12-01 00:00:00 14.8 12 Sudoeste 23 Oeste 0 -- -- 88
2019-11-30 23:00:00 15.5 9 Sudoeste 15 Sudoeste 0 -- -- 80
2019-11-30 22:00:00 16 9 Sudoeste 20 Sudoeste 0 -- -- 75
2019-11-30 21:00:00 15.8 11 Oeste 19 Sudoeste 0 -- -- 74
2019-11-30 20:00:00 16.3 8 Oeste 18 Oeste 0 -- -- 72
2019-11-30 19:00:00 16.5 10 Oeste 18 Oeste 0 -- -- 67
2019-11-30 18:00:00 17.7 10 Oeste 23 Oeste 0 -- -- 67
2019-11-30 17:00:00 18.4 9 Oeste 20 Oeste 0 -- -- 66
2019-11-30 16:00:00 19.5 13 Oeste 22 Oeste 0 -- -- 59
2019-11-30 15:00:00 19.4 9 Oeste 15 Oeste 0 -- -- 60
2019-11-30 14:00:00 18.9 6 Oeste 12 Oeste 0 -- -- 63
2019-11-30 13:00:00 17.9 3 Sudeste 8 Este 0 -- -- 63
2019-11-30 12:00:00 16.4 2 Nordeste 7 Este 0 -- -- 71
2019-11-30 11:00:00 13.9 5 Este 12 Este 0 -- -- 83
2019-11-30 10:00:00 11.5 6 Este 10 Este 0 -- -- 93
2019-11-30 09:00:00 9.6 7 Este 8 Este 0 -- -- 93
2019-11-30 08:00:00 8.9 6 Este 8 Este 0 -- -- 93
2019-11-30 07:00:00 9.2 6 Nordeste 9 Este 0 -- -- 93
2019-11-30 06:00:00 9.7 8 Este 9 Este 0 -- -- 92
2019-11-30 05:00:00 9.8 6 Este 10 Este 0 -- -- 92
2019-11-30 04:00:00 10.1 4 Nordeste 6 Nordeste 0 -- -- 91
2019-11-30 03:00:00 10.3 5 Este 7 Este 0 -- -- 91
2019-11-30 02:00:00 10.9 3 Nordeste 8 Norte 0 -- -- 90
2019-11-30 01:00:00 11.1 5 Nordeste 6 Nordeste 0 -- -- 90
2019-11-30 00:00:00 11.7 3 Nordeste 9 Norte 0 -- -- 90
2019-11-29 23:00:00 12 7 Norte 8 Norte 0 -- -- 89
2019-11-29 22:00:00 12.9 0 Calma 5 Este 0 -- -- 89
2019-11-29 21:00:00 13.6 5 Este 8 Este 0 -- -- 88
2019-11-29 20:00:00 14.5 4 Nordeste -- -- 0 -- -- 84
2019-11-29 19:00:00 15.7 3 Sudeste 5 Este 0 -- -- 83
2019-11-29 18:00:00 17.6 4 Este 9 Este 0 -- -- 76
2019-11-29 17:00:00 19.1 6 Este 12 Este 0 -- -- 65
2019-11-29 16:00:00 19.6 6 Este 10 Este 0 -- -- 61
2019-11-29 15:00:00 19.1 5 Nordeste 10 Nordeste 0 -- -- 64
2019-11-29 14:00:00 17.9 6 Este 13 Este 0 -- -- 69
2019-11-29 13:00:00 16.2 7 Este 13 Este 0 -- -- 76
2019-11-29 12:00:00 15.1 9 Este 15 Nordeste 0 -- -- 81
2019-11-29 11:00:00 13.2 11 Nordeste 16 Nordeste 0 -- -- 93
2019-11-29 10:00:00 11.2 8 Nordeste 12 Este 0 -- -- 94
2019-11-29 09:00:00 9.3 6 Este 9 Nordeste 0 -- -- 94
2019-11-29 08:00:00 8.7 5 Este 10 Nordeste 0 -- -- 93
2019-11-29 07:00:00 9.2 6 Nordeste 12 Este 0 -- -- 93
2019-11-29 06:00:00 9.2 6 Este 9 Este 0 -- -- 93
2019-11-29 05:00:00 9.4 6 Este 7 Este 0 -- -- 92
2019-11-29 04:00:00 9.6 4 Nordeste 6 Nordeste 0 -- -- 92
2019-11-29 03:00:00 10 6 Nordeste 8 Nordeste 0 -- -- 91
2019-11-29 02:00:00 10.5 4 Este -- -- 0 -- -- 91
2019-11-29 01:00:00 11 4 Nordeste 7 Nordeste 0 -- -- 91
2019-11-29 00:00:00 11.5 3 Nordeste 4 Nordeste 0 -- -- 90
2019-11-28 23:00:00 12.2 4 Este 6 Este 0 -- -- 89
2019-11-28 22:00:00 13.2 6 Sudeste 8 Sudeste 0 -- -- 89
2019-11-28 21:00:00 13.8 6 Sudeste 9 Nordeste 0 -- -- 88
2019-11-28 20:00:00 14.5 4 Sudeste 6 Sudeste 0 -- -- 87
2019-11-28 19:00:00 15.3 2 Nordeste 3 Nordeste 0 -- -- 79
2019-11-28 18:00:00 17.6 2 Este 4 Sur 0 -- -- 69
2019-11-28 17:00:00 18.8 2 Sudoeste 9 Sudoeste 0 -- -- 61
2019-11-28 16:00:00 18.7 4 Sudoeste 11 Sur 0 -- -- 61
2019-11-28 15:00:00 17.9 3 Sudeste 9 Este 0 -- -- 72
2019-11-28 14:00:00 17.6 4 Este 10 Sudeste 0 -- -- 75
2019-11-28 13:00:00 15.6 5 Este 12 Este 0 -- -- 86
2019-11-28 12:00:00 14.1 7 Este 16 Este 0 -- -- 92
2019-11-28 11:00:00 13.2 9 Este 15 Este 0 -- -- 93
2019-11-28 10:00:00 12.4 9 Este 13 Este 0 -- -- 94
2019-11-28 09:00:00 12 6 Este 12 Nordeste 0 -- -- 93
2019-11-28 08:00:00 11.8 6 Nordeste 13 Este 0 -- -- 93
2019-11-28 07:00:00 11.8 8 Este 13 Este 0 -- -- 93
2019-11-28 06:00:00 11.2 3 Nordeste 6 Este 0 -- -- 92
2019-11-28 05:00:00 11 3 Sudeste 6 Este 0 -- -- 92
2019-11-28 04:00:00 11 4 Norte 7 Oeste 0 -- -- 92
2019-11-28 03:00:00 10.5 2 Sudeste 6 Norte 0 -- -- 91
2019-11-28 02:00:00 11.1 0 Calma 7 Nordeste 0 -- -- 90
2019-11-28 01:00:00 12.2 4 Sudoeste 8 Sudoeste 0 -- -- 90
2019-11-28 00:00:00 12.7 6 Sudoeste 11 Sudoeste 0 -- -- 89
2019-11-27 23:00:00 13.4 9 Sudoeste 15 Sudoeste 0 -- -- 89
2019-11-27 22:00:00 13.8 12 Sudoeste 17 Sudoeste 0 -- -- 88
2019-11-27 21:00:00 14.3 10 Sudoeste 13 Sudoeste 0 -- -- 87
2019-11-27 20:00:00 15.2 9 Sudoeste 13 Sudoeste 0 -- -- 83
2019-11-27 19:00:00 16 8 Sudoeste 12 Sudoeste 0 -- -- 81
2019-11-27 18:00:00 16.5 8 Oeste 21 Oeste 0 -- -- 78
2019-11-27 17:00:00 18 10 Oeste 18 Sudoeste 0 -- -- 70
2019-11-27 16:00:00 17.6 11 Sudoeste 17 Sudoeste 0 -- -- 74
2019-11-27 15:00:00 17.5 8 Sudoeste 17 Oeste 0 -- -- 75
2019-11-27 14:00:00 17.1 10 Oeste 15 Oeste 0 -- -- 80
2019-11-27 06:00:00 -- -- -- -- -- -- -- -- --
2019-11-27 05:00:00 14.3 8 Sudoeste 13 Sudoeste 0 -- -- 92
2019-11-27 04:00:00 14.7 9 Sudoeste 19 Sudoeste 0 -- -- 92
2019-11-27 03:00:00 15 12 Sudoeste 24 Sudoeste 0 -- -- 92
2019-11-27 02:00:00 15.8 13 Sudoeste 26 Sudoeste 0 -- -- 92
2019-11-27 01:00:00 16.2 17 Sudoeste 36 Sudoeste 0 -- -- 91
2019-11-27 00:00:00 16.2 23 Sudoeste 36 Sudoeste 0.2 -- -- 91
2019-11-26 23:00:00 16.3 21 Sudoeste 33 Sudoeste 0.6 -- -- 90
2019-11-26 22:00:00 16.8 17 Sudoeste 31 Sudoeste 0 -- -- 87
2019-11-26 21:00:00 16.7 16 Sudoeste 25 Sudoeste 0 -- -- 88
2019-11-26 20:00:00 16.7 9 Sudoeste 20 Sudoeste 0 -- -- 86
2019-11-26 19:00:00 17.1 11 Sudoeste 20 Sudoeste 0 -- -- 85
2019-11-26 18:00:00 17.6 11 Sudoeste 23 Sudoeste 0 -- -- 82
2019-11-26 17:00:00 17.4 6 Sudoeste 11 Sudoeste 0 -- -- 92
2019-11-26 16:00:00 16.5 0 Calma 8 Noroeste 0 -- -- 93
2019-11-26 15:00:00 16.3 5 Noroeste 7 Noroeste 0.2 -- -- 93
2019-11-26 14:00:00 15.8 0 Calma 4 Nordeste 0.2 -- -- 94
2019-11-26 13:00:00 15.7 2 Noroeste 6 Oeste 0.4 -- -- 93
2019-11-26 12:00:00 15.5 3 Nordeste 6 Este 0 -- -- 94
2019-11-26 11:00:00 14.9 4 Sudeste 8 Este 0 -- -- 94
2019-11-26 10:00:00 14 2 Este 7 Nordeste 0 -- -- 94
2019-11-26 09:00:00 13.6 5 Nordeste 8 Este 0 -- -- 93
2019-11-26 08:00:00 13.7 4 Norte 7 Este 0 -- -- 93
2019-11-26 07:00:00 13.9 2 Norte 4 Nordeste 0 -- -- 93
2019-11-26 06:00:00 14.1 3 Nordeste 5 Noroeste 0 -- -- 93
2019-11-26 05:00:00 14.4 2 Norte 5 Noroeste 0 -- -- 93
2019-11-26 04:00:00 14.6 0 Calma 4 Noroeste 0 -- -- 93
2019-11-26 03:00:00 15 4 Oeste 9 Oeste 0 -- -- 93
2019-11-26 02:00:00 15.7 4 Noroeste 10 Oeste 0 -- -- 93
2019-11-26 01:00:00 15.9 7 Oeste 12 Oeste 0 -- -- 93
2019-11-26 00:00:00 16.3 4 Oeste 9 Sudoeste 0 -- -- 93
2019-11-25 23:00:00 16.6 4 Oeste 15 Oeste 0 -- -- 93
2019-11-25 22:00:00 16.6 9 Sudoeste 15 Sudoeste 0.2 -- -- 93
2019-11-25 21:00:00 16.6 8 Sudoeste 18 Oeste 0 -- -- 92
2019-11-25 20:00:00 16.7 10 Sudoeste 18 Sudoeste 0 -- -- 93
2019-11-25 19:00:00 16.8 12 Sudoeste 16 Sudoeste 0 -- -- 93
2019-11-25 18:00:00 16.8 10 Sudoeste 18 Sudoeste 0.8 -- -- 93
2019-11-25 17:00:00 16.5 5 Noroeste 21 Oeste 1 -- -- 93
2019-11-25 16:00:00 16.9 14 Sudoeste 22 Sudoeste 0 -- -- 93
2019-11-25 15:00:00 15.6 4 Noroeste 6 Oeste 0.2 -- -- 93
2019-11-25 14:00:00 15.3 3 Noroeste 6 Noroeste 0.2 -- -- 93
2019-11-25 13:00:00 14.2 0 Calma 5 Norte 0.2 -- -- 92
2019-11-25 12:00:00 13.7 2 Nordeste 7 Nordeste 0.4 -- -- 92
2019-11-25 11:00:00 13.1 4 Nordeste 7 Norte 0.6 -- -- 92
2019-11-25 10:00:00 12.7 2 Nordeste 5 Norte 0.6 -- -- 91
2019-11-25 09:00:00 12.3 2 Nordeste 5 Nordeste 0.2 -- -- 90
2019-11-25 08:00:00 12.5 3 Nordeste 8 Sudoeste 0 -- -- 89
2019-11-25 07:00:00 13 6 Sudoeste 14 Sur 0 -- -- 90
2019-11-25 06:00:00 12 0 Calma 5 Nordeste 0 -- -- 91
2019-11-25 05:00:00 12 2 Norte 3 Norte 0 -- -- 90
2019-11-25 04:00:00 11.9 0 Calma 3 Sur 0 -- -- 89
2019-11-25 03:00:00 11.7 2 Oeste 4 Sudoeste 0 -- -- 89
2019-11-25 02:00:00 11.4 0 Calma 2 Sudoeste 0 -- -- 89
2019-11-25 01:00:00 11.3 0 Calma 8 Sudoeste 0 -- -- 88
2019-11-25 00:00:00 11.5 4 Sur 14 Sudoeste 0 -- -- 86
2019-11-24 23:00:00 12 10 Sudoeste 15 Sudoeste 0 -- -- 84
2019-11-24 22:00:00 13.3 10 Sudoeste 18 Sudoeste 0 -- -- 78
2019-11-24 21:00:00 14.1 12 Sudoeste 19 Oeste 0 -- -- 74
2019-11-24 20:00:00 13.7 12 Oeste 18 Sudoeste 0 -- -- 76
2019-11-24 19:00:00 14.9 12 Sudoeste 19 Sudoeste 0 -- -- 69
2019-11-24 18:00:00 15.5 13 Sudoeste 22 Sudoeste 0 -- -- 65
2019-11-24 17:00:00 15.9 9 Sudoeste 25 Sudoeste 0 -- -- 62
2019-11-24 16:00:00 16.8 11 Sudoeste 20 Sudoeste 0 -- -- 57
2019-11-24 15:00:00 16.3 10 Sudoeste 20 Oeste 0 -- -- 57
2019-11-24 14:00:00 15.6 10 Sudoeste 16 Sudoeste 0 -- -- 55
2019-11-24 13:00:00 14.5 6 Sudoeste 11 Sudoeste 0 -- -- 61
2019-11-24 12:00:00 13.3 0 Calma 6 Noroeste 0 -- -- 67
2019-11-24 11:00:00 11.3 4 Norte 8 Nordeste 0 -- -- 76
2019-11-24 10:00:00 8.6 2 Norte 8 Norte 0 -- -- 90
2019-11-24 09:00:00 6.4 3 Oeste 5 Oeste 0 -- -- 91
2019-11-24 08:00:00 5.6 3 Sur 5 Sudeste 0 -- -- 91
2019-11-24 07:00:00 5.6 3 Nordeste 4 Nordeste 0 -- -- 90
2019-11-24 06:00:00 5.9 0 Calma 8 Norte 0 -- -- 89
2019-11-24 05:00:00 6.6 0 Calma 4 Sudoeste 0 -- -- 87
2019-11-24 04:00:00 7.4 2 Oeste 12 Sudoeste 0 -- -- 85
2019-11-24 03:00:00 7.9 4 Sudoeste 8 Sudoeste 0 -- -- 85
2019-11-24 02:00:00 8.3 0 Calma 9 Sudoeste 0 -- -- 83
2019-11-24 01:00:00 9.4 8 Sudoeste 12 Sudoeste 0 -- -- 81
2019-11-24 00:00:00 9.6 6 Sudoeste 13 Sudoeste 0 -- -- 80
2019-11-23 23:00:00 9.6 8 Sudoeste 13 Sudoeste 0 -- -- 81
2019-11-23 22:00:00 9.6 9 Noroeste 14 Oeste 0 -- -- 80
2019-11-23 21:00:00 10.9 9 Sudoeste 13 Oeste 0 -- -- 74
2019-11-23 20:00:00 11.4 10 Oeste 14 Oeste 0 -- -- 73
2019-11-23 19:00:00 12.9 12 Oeste 17 Oeste 0 -- -- 65
2019-11-23 18:00:00 15.1 11 Oeste 21 Oeste 0 -- -- 58
2019-11-23 17:00:00 16.8 14 Oeste 36 Noroeste 0 -- -- 51
2019-11-23 16:00:00 17.5 19 Noroeste 34 Noroeste 0 -- -- 46
2019-11-23 15:00:00 17.4 22 Noroeste 38 Oeste 0 -- -- 48
2019-11-23 14:00:00 16.4 22 Noroeste 38 Oeste 0 -- -- 50
2019-11-23 13:00:00 16.4 24 Noroeste 40 Noroeste 0 -- -- 52
2019-11-23 12:00:00 15.6 19 Oeste 32 Oeste 0 -- -- 64
2019-11-23 11:00:00 14.2 19 Oeste 30 Oeste 0 -- -- 69
2019-11-23 10:00:00 12.8 17 Oeste 23 Oeste 0 -- -- 82
2019-11-23 09:00:00 11.5 10 Oeste 22 Oeste 0 -- -- 85
2019-11-23 08:00:00 11.6 15 Oeste 26 Oeste 0 -- -- 82
2019-11-23 07:00:00 11.6 13 Oeste 19 Sudoeste 0 -- -- 85
2019-11-23 06:00:00 12.2 9 Oeste 23 Oeste 0 -- -- 85
2019-11-23 05:00:00 12.8 12 Noroeste 28 Sudoeste 0 -- -- 82
2019-11-23 04:00:00 12.9 17 Oeste 32 Oeste 0 -- -- 81
2019-11-23 03:00:00 13.4 21 Oeste 34 Sudoeste 0 -- -- 81
2019-11-23 02:00:00 13.5 19 Oeste 31 Sudoeste 0 -- -- 83
2019-11-23 01:00:00 13.4 18 Sudoeste 29 Sudoeste 0 -- -- 84
2019-11-23 00:00:00 13.8 18 Sudoeste 28 Sudoeste 0 -- -- 85
2019-11-22 23:00:00 13.7 17 Sudoeste 26 Sudoeste 0 -- -- 86
2019-11-22 22:00:00 14.5 16 Sudoeste 30 Sudoeste 0 -- -- 81
2019-11-22 21:00:00 14.6 18 Sudoeste 36 Oeste 0 -- -- 81
2019-11-22 20:00:00 14.9 24 Oeste 39 Oeste 0 -- -- 81
2019-11-22 19:00:00 15.2 19 Oeste 34 Oeste 0.2 -- -- 88
2019-11-22 18:00:00 15.4 26 Oeste 61 Sudoeste 9.2 -- -- 91
2019-11-22 17:00:00 18 38 Sudoeste 61 Sudoeste 0.2 -- -- 84
2019-11-22 16:00:00 17.6 31 Sudoeste 57 Sudoeste 1.6 -- -- 87
2019-11-22 15:00:00 16.9 28 Sudoeste 45 Sudoeste 5.4 -- -- 91
2019-11-22 14:00:00 16.9 29 Sudoeste 48 Sudoeste 5 -- -- 90
2019-11-22 13:00:00 17 30 Sudoeste 53 Sudoeste 1.6 -- -- 89
2019-11-22 12:00:00 16.7 23 Sudoeste 40 Sudoeste 0.8 -- -- 90
2019-11-22 11:00:00 16 17 Sudoeste 28 Sudoeste 0 -- -- 92
2019-11-22 10:00:00 15.1 6 Sudoeste 17 Sur 0 -- -- 93
2019-11-22 09:00:00 13.6 4 Este 8 Sudeste 0 -- -- 93
2019-11-22 08:00:00 13.3 5 Sudeste 10 Sudeste 0 -- -- 93
2019-11-22 07:00:00 13.1 4 Sudeste 6 Sur 0.2 -- -- 93
2019-11-22 06:00:00 13.2 3 Sur 4 Sur 0 -- -- 92
2019-11-22 05:00:00 13.3 2 Oeste 5 Oeste 0 -- -- 92
2019-11-22 04:00:00 13.5 3 Oeste 5 Oeste 0 -- -- 92
2019-11-22 03:00:00 13.6 2 Sudoeste 9 Noroeste 0 -- -- 92
2019-11-22 02:00:00 13.8 5 Oeste 12 Oeste 0 -- -- 92
2019-11-22 01:00:00 14 5 Oeste 13 Sudoeste 0 -- -- 92
2019-11-22 00:00:00 14.1 6 Sudoeste 12 Sudoeste 0.2 -- -- 92
2019-11-21 23:00:00 14.1 7 Sudoeste 13 Sudoeste 0 -- -- 92
2019-11-21 22:00:00 13.8 2 Sur 5 Sudeste 0.6 -- -- 92
2019-11-21 21:00:00 13.8 0 Calma 4 Nordeste 0 -- -- 92
2019-11-21 20:00:00 14 4 Sudeste 7 Este 0 -- -- 92
2019-11-21 19:00:00 14.2 4 Este 5 Este 0 -- -- 91
2019-11-21 18:00:00 14.5 0 Calma 6 Sur 0 -- -- 91
2019-11-21 17:00:00 14.4 4 Sur 6 Sur 0 -- -- 93
2019-11-21 16:00:00 13.9 3 Sur 7 Sudeste 0 -- -- 93
2019-11-21 15:00:00 13.8 3 Nordeste 10 Este 0.8 -- -- 94
2019-11-21 14:00:00 13.3 4 Nordeste 6 Este 1.8 -- -- 93
2019-11-21 13:00:00 12.9 4 Nordeste 11 Este 1.2 -- -- 93
2019-11-21 12:00:00 12.6 8 Este 13 Este 3.8 -- -- 93
2019-11-21 11:00:00 12 8 Este 12 Este 1.6 -- -- 93
2019-11-21 10:00:00 11.5 7 Este 10 Este 0.2 -- -- 93
2019-11-21 09:00:00 11.1 6 Este 12 Este 0.2 -- -- 93
2019-11-21 08:00:00 10.8 7 Este 11 Este 0.2 -- -- 93
2019-11-21 07:00:00 10.7 6 Este 12 Nordeste 0 -- -- 93
2019-11-21 06:00:00 10.8 5 Este 8 Nordeste 0 -- -- 92
2019-11-21 05:00:00 10.6 6 Este 9 Este 0 -- -- 92
2019-11-21 04:00:00 10.6 3 Este 6 Sudeste 0.2 -- -- 92
2019-11-21 03:00:00 10.3 4 Este 5 Este 0 -- -- 92
2019-11-21 02:00:00 10.1 0 Calma 6 Nordeste 0 -- -- 92
2019-11-21 01:00:00 9.9 4 Nordeste 6 Nordeste 0 -- -- 92
2019-11-21 00:00:00 9.8 3 Nordeste 6 Nordeste 0 -- -- 91
2019-11-20 23:00:00 9.8 2 Este 12 Este 2.4 -- -- 91
2019-11-20 22:00:00 9.9 6 Este 10 Este 2.8 -- -- 90
2019-11-20 21:00:00 10.2 3 Este 7 Sudeste 0 -- -- 89
2019-11-20 20:00:00 10 5 Sudeste 8 Sudeste 0 -- -- 89
2019-11-20 19:00:00 10 3 Sudeste 7 Norte 0 -- -- 89
2019-11-20 18:00:00 9.8 4 Norte 15 Nordeste 0 -- -- 89
2019-11-20 17:00:00 9.5 9 Este 23 Este 0 -- -- 89
2019-11-20 16:00:00 9.2 13 Este 24 Este 0.2 -- -- 89
2019-11-20 15:00:00 8.9 10 Este 24 Este 0 -- -- 89
2019-11-20 14:00:00 8.6 14 Este 25 Este 0 -- -- 89
2019-11-20 13:00:00 8 14 Este 26 Este 0 -- -- 90
2019-11-20 12:00:00 7.8 14 Este 26 Este 0.2 -- -- 90
2019-11-20 11:00:00 7.4 13 Este 22 Este 0.6 -- -- 90
2019-11-20 10:00:00 7.1 14 Este 23 Este 0 -- -- 90
2019-11-20 09:00:00 6.6 8 Este 14 Este 0 -- -- 91
2019-11-20 08:00:00 6.1 7 Este 12 Este 0 -- -- 92
2019-11-20 07:00:00 5.7 6 Este 10 Este 0 -- -- 92
2019-11-20 06:00:00 4.8 5 Este 10 Este 0 -- -- 91
2019-11-20 05:00:00 5 5 Nordeste 9 Nordeste 0 -- -- 90
2019-11-20 04:00:00 5.3 5 Nordeste 9 Este 0 -- -- 89
2019-11-20 03:00:00 5.4 7 Este 8 Nordeste 0 -- -- 89
2019-11-20 02:00:00 5.8 6 Nordeste 9 Este 0 -- -- 88
2019-11-20 01:00:00 6.3 0 Calma 7 Nordeste 0 -- -- 87
2019-11-20 00:00:00 6.9 4 Este 8 Norte 0 -- -- 87
2019-11-19 23:00:00 7.7 4 Norte 9 Este 0 -- -- 86
2019-11-19 22:00:00 9 6 Este 8 Este 0 -- -- 83
2019-11-19 21:00:00 10.8 5 Nordeste 6 Nordeste 0 -- -- 80
2019-11-19 20:00:00 12.1 3 Este 7 Este 0 -- -- 76
2019-11-19 19:00:00 12.9 4 Sudeste 6 Sudeste 0 -- -- 72
2019-11-19 18:00:00 14.1 3 Este 4 Este 0 -- -- 66
2019-11-19 17:00:00 15.2 0 Calma 10 Sudeste 0 -- -- 55
2019-11-19 16:00:00 15.1 3 Este 19 Este 0 -- -- 57
2019-11-19 15:00:00 14.4 6 Este 14 Este 0 -- -- 58
2019-11-19 14:00:00 13.7 10 Este 19 Nordeste 0 -- -- 65
2019-11-19 13:00:00 12.4 9 Este 18 Este 0 -- -- 71
2019-11-19 12:00:00 10 11 Este 19 Este 0 -- -- 78
2019-11-19 11:00:00 8.2 10 Este 14 Este 0 -- -- 86
2019-11-19 10:00:00 6.5 6 Nordeste 9 Nordeste 0 -- -- 91
2019-11-19 09:00:00 5.4 5 Este 7 Este 0 -- -- 91
2019-11-19 08:00:00 4.5 5 Este 10 Este 0 -- -- 90
2019-11-19 07:00:00 5.1 7 Nordeste 10 Este 0 -- -- 90
2019-11-19 06:00:00 5.3 4 Nordeste 8 Nordeste 0 -- -- 89
2019-11-19 05:00:00 6.1 4 Este 10 Este 0 -- -- 89
2019-11-19 04:00:00 6.3 6 Nordeste 10 Nordeste 0 -- -- 89
2019-11-19 03:00:00 6.1 8 Este 10 Este 0 -- -- 87
2019-11-19 02:00:00 6.6 5 Nordeste 9 Nordeste 0 -- -- 84
2019-11-19 01:00:00 7.2 5 Nordeste 9 Nordeste 0 -- -- 83
2019-11-19 00:00:00 7.4 5 Nordeste 9 Nordeste 0 -- -- 82
2019-11-18 23:00:00 8.4 6 Nordeste 10 Norte 0 -- -- 77
2019-11-18 22:00:00 8.9 7 Este 8 Nordeste 0 -- -- 80
2019-11-18 21:00:00 10.1 4 Noroeste 10 Noroeste 0 -- -- 79
2019-11-18 20:00:00 11.6 5 Sur 10 Sur 0 -- -- 74
2019-11-18 19:00:00 12.9 8 Sur 10 Sudeste 0 -- -- 72
2019-11-18 18:00:00 15.5 8 Sudeste 17 Sudeste 0 -- -- 57
2019-11-18 17:00:00 17.1 11 Sudeste 16 Sudeste 0 -- -- 50
2019-11-18 16:00:00 18.1 6 Noroeste 14 Sudoeste 0 -- -- 41
2019-11-18 15:00:00 17.8 4 Nordeste 14 Oeste 0 -- -- 45
2019-11-18 14:00:00 17.2 4 Noroeste 16 Noroeste 0 -- -- 47
2019-11-18 13:00:00 16.3 8 Norte 14 Norte 0 -- -- 51
2019-11-18 12:00:00 14.5 7 Noroeste 14 Noroeste 0 -- -- 56
2019-11-18 11:00:00 12.7 9 Noroeste 21 Noroeste 0 -- -- 64
2019-11-18 10:00:00 10.6 9 Noroeste 15 Noroeste 0 -- -- 71
2019-11-18 09:00:00 7.9 11 Oeste 15 Oeste 0 -- -- 85
2019-11-18 08:00:00 7.7 3 Sudoeste 11 Noroeste 0 -- -- 83
2019-11-18 07:00:00 8.3 7 Noroeste 22 Norte 0 -- -- 80
2019-11-18 06:00:00 8.9 2 Norte 18 Oeste 0 -- -- 81
2019-11-18 05:00:00 10 10 Oeste 19 Oeste 0 -- -- 80
2019-11-18 04:00:00 11.7 12 Oeste 20 Oeste 0 -- -- 86
2019-11-18 03:00:00 12.9 15 Oeste 25 Oeste 0.2 -- -- 90
2019-11-18 02:00:00 13.3 7 Norte 28 Sudoeste 0.6 -- -- 90
2019-11-18 01:00:00 13.4 17 Sudoeste 28 Sudoeste 1.2 -- -- 90
2019-11-18 00:00:00 12.5 10 Oeste 19 Sudoeste 0.4 -- -- 92
2019-11-17 23:00:00 11.4 6 Sudoeste 14 Sudoeste 0 -- -- 92
2019-11-17 22:00:00 10.7 4 Sur 7 Sur 0 -- -- 92
2019-11-17 21:00:00 10.3 0 Calma 3 Sudoeste 0 -- -- 91
2019-11-17 20:00:00 10.4 0 Calma 5 Noroeste 0 -- -- 91
2019-11-17 19:00:00 10.3 2 Nordeste 5 Este 0 -- -- 91
2019-11-17 18:00:00 10.3 3 Este 7 Norte 0 -- -- 91
2019-11-17 17:00:00 10.3 4 Norte 6 Norte 0 -- -- 90
2019-11-17 16:00:00 9.9 2 Noroeste 5 Noroeste 0 -- -- 91
2019-11-17 15:00:00 9.2 0 Calma 4 Noroeste 0 -- -- 91
2019-11-17 14:00:00 8.3 0 Calma 4 Norte 0.2 -- -- 91
2019-11-17 13:00:00 7.4 3 Norte 8 Norte 0.2 -- -- 91
2019-11-17 12:00:00 6.5 4 Nordeste 9 Nordeste 0.6 -- -- 90
2019-11-17 11:00:00 6 4 Nordeste 6 Nordeste 0.4 -- -- 89
2019-11-17 10:00:00 5.6 2 Este 4 Nordeste 0.4 -- -- 87
2019-11-17 09:00:00 5.3 3 Nordeste 7 Este 0 -- -- 85
2019-11-17 08:00:00 5.2 0 Calma 8 Nordeste 0 -- -- 80
2019-11-17 07:00:00 4.8 0 Calma 3 Este 0 -- -- 78
2019-11-17 06:00:00 3.8 0 Calma 2 Nordeste 0 -- -- 80
2019-11-17 05:00:00 3.2 2 Este 4 Este 0 -- -- 79
2019-11-17 04:00:00 3.5 3 Sudoeste 8 Este 0 -- -- 76
2019-11-17 03:00:00 3.1 5 Nordeste 6 Norte 0 -- -- 77
2019-11-17 02:00:00 3.5 0 Calma 4 Sudeste 0 -- -- 77
2019-11-17 01:00:00 4.1 2 Nordeste 6 Oeste 0 -- -- 75
2019-11-17 00:00:00 5.3 4 Oeste 6 Oeste 0 -- -- 71
2019-11-16 23:00:00 5.5 4 Sur 5 Nordeste 0 -- -- 70
2019-11-16 22:00:00 6.5 4 Nordeste 8 Nordeste 0 -- -- 66
2019-11-16 21:00:00 8.1 8 Noroeste 12 Oeste 0 -- -- 62
2019-11-16 20:00:00 10.3 9 Sur 14 Sur 0 -- -- 52
2019-11-16 19:00:00 11.4 9 Sur 12 Sur 0 -- -- 48
2019-11-16 18:00:00 14.9 4 Sudoeste 14 Sudoeste 0 -- -- 37
2019-11-16 17:00:00 15.7 8 Sudoeste 18 Sudoeste 0 -- -- 35
2019-11-16 16:00:00 15.4 9 Sudoeste 15 Sudoeste 0 -- -- 34
2019-11-16 15:00:00 14.7 8 Oeste 17 Noroeste 0 -- -- 37
2019-11-16 14:00:00 14.1 5 Sur 13 Este 0 -- -- 39
2019-11-16 13:00:00 12.8 4 Este 11 Nordeste 0 -- -- 44
2019-11-16 12:00:00 11.7 4 Sudeste 10 Este 0 -- -- 49
2019-11-16 11:00:00 10.1 4 Nordeste 9 Nordeste 0 -- -- 56
2019-11-16 10:00:00 8.1 5 Norte 10 Noroeste 0 -- -- 64
2019-11-16 09:00:00 5.6 6 Noroeste 12 Noroeste 0 -- -- 71
2019-11-16 08:00:00 4.4 5 Noroeste 9 Norte 0 -- -- 73
2019-11-16 07:00:00 4.3 3 Oeste 8 Norte 0 -- -- 73
2019-11-16 06:00:00 4.6 4 Norte 9 Noroeste 0 -- -- 72
2019-11-16 05:00:00 5.2 5 Noroeste 13 Noroeste 0 -- -- 69
2019-11-16 04:00:00 5.8 0 Calma 9 Norte 0 -- -- 67
2019-11-16 03:00:00 5.8 0 Calma 11 Noroeste 0 -- -- 66
2019-11-16 02:00:00 5.5 2 Este 5 Sur 0 -- -- 67
2019-11-16 01:00:00 5.9 3 Oeste 9 Sudoeste 0 -- -- 65
2019-11-16 00:00:00 7.3 6 Sudoeste 10 Oeste 0 -- -- 59
2019-11-15 23:00:00 7.7 9 Oeste 11 Oeste 0 -- -- 59
2019-11-15 22:00:00 7.8 6 Oeste 12 Oeste 0 -- -- 62
2019-11-15 21:00:00 8.8 9 Oeste 12 Oeste 0 -- -- 60
2019-11-15 20:00:00 10.9 6 Oeste 11 Oeste 0 -- -- 55
2019-11-15 19:00:00 12.1 4 Sudoeste 6 Sudoeste 0 -- -- 49
2019-11-15 18:00:00 13 0 Calma 9 Nordeste 0 -- -- 42
2019-11-15 17:00:00 13.6 6 Norte 14 Norte 0 -- -- 41
2019-11-15 16:00:00 13.3 8 Noroeste 20 Oeste 0 -- -- 41
2019-11-15 15:00:00 13.3 13 Noroeste 21 Noroeste 0 -- -- 40
2019-11-15 14:00:00 13.5 14 Noroeste 23 Norte 0 -- -- 42
2019-11-15 13:00:00 12.7 7 Oeste 22 Oeste 0 -- -- 48
2019-11-15 12:00:00 12.3 10 Oeste 31 Oeste 0 -- -- 51
2019-11-15 11:00:00 10.5 10 Oeste 18 Sudoeste 0 -- -- 61
2019-11-15 10:00:00 7.6 0 Calma 5 Oeste 0 -- -- 78
2019-11-15 09:00:00 6.7 4 Sudoeste 12 Sudoeste 0 -- -- 79
2019-11-15 08:00:00 6.8 8 Sudoeste 17 Sudoeste 0 -- -- 77
2019-11-15 07:00:00 7.1 9 Sudoeste 19 Sudoeste 0 -- -- 74
2019-11-15 06:00:00 7.4 13 Sudoeste 21 Sudoeste 0 -- -- 73
2019-11-15 05:00:00 7.5 13 Oeste 21 Sudoeste 0 -- -- 73
2019-11-15 04:00:00 8.3 14 Sudoeste 27 Sudoeste 0 -- -- 69
2019-11-15 03:00:00 8.8 16 Sudoeste 25 Oeste 0 -- -- 67
2019-11-15 02:00:00 9.5 15 Oeste 31 Oeste 0 -- -- 62
2019-11-15 01:00:00 10.1 20 Oeste 29 Oeste 0 -- -- 60
2019-11-15 00:00:00 9.1 12 Oeste 24 Oeste 0 -- -- 74
2019-11-14 23:00:00 9.5 10 Oeste 17 Sudoeste 0 -- -- 72
2019-11-14 22:00:00 10.7 10 Sudoeste 28 Sudoeste 0 -- -- 63
2019-11-14 21:00:00 11.8 10 Oeste 27 Oeste 0 -- -- 58
2019-11-14 20:00:00 13.3 23 Oeste 36 Oeste 0 -- -- 51
2019-11-14 19:00:00 13.1 18 Oeste 34 Oeste 0 -- -- 51
2019-11-14 18:00:00 14.1 18 Oeste 39 Oeste 0 -- -- 49
2019-11-14 17:00:00 15.1 19 Noroeste 38 Oeste 0 -- -- 48
2019-11-14 16:00:00 14.5 25 Noroeste 44 Noroeste 0 -- -- 50
2019-11-14 15:00:00 15.1 21 Noroeste 40 Noroeste 0 -- -- 49
2019-11-14 14:00:00 14.8 23 Noroeste 48 Noroeste 0 -- -- 55
2019-11-14 13:00:00 13.5 20 Oeste 38 Oeste 0.2 -- -- 73
2019-11-14 12:00:00 14.4 22 Oeste 38 Oeste 0 -- -- 75
2019-11-14 11:00:00 13.9 22 Oeste 36 Oeste 0 -- -- 74
2019-11-14 10:00:00 13 24 Sudoeste 36 Oeste 0 -- -- 76
2019-11-14 09:00:00 11.8 23 Sudoeste 34 Sudoeste 0 -- -- 79
2019-11-14 08:00:00 10.1 12 Sudoeste 24 Sudoeste 0 -- -- 86
2019-11-14 07:00:00 10.4 14 Sudoeste 22 Sudoeste 0 -- -- 84
2019-11-14 06:00:00 9.9 12 Sudoeste 17 Sudoeste 0 -- -- 83
2019-11-14 05:00:00 9.4 5 Sudoeste 13 Oeste 0 -- -- 84
2019-11-14 04:00:00 9.6 8 Oeste 13 Sudoeste 0 -- -- 83
2019-11-14 03:00:00 10.6 4 Sudoeste 16 Oeste 0 -- -- 83
2019-11-14 02:00:00 11 8 Oeste 18 Oeste 0 -- -- 81
2019-11-14 01:00:00 12 14 Oeste 22 Oeste 0 -- -- 77
2019-11-14 00:00:00 12.8 10 Sudoeste 15 Sur 0 -- -- 81
2019-11-13 23:00:00 13.7 10 Sudoeste 14 Sudoeste 0 -- -- 71
2019-11-13 22:00:00 14.2 7 Sudoeste 12 Sudoeste 0 -- -- 69
2019-11-13 21:00:00 15.5 8 Sudoeste 18 Oeste 0 -- -- 65
2019-11-13 20:00:00 16.7 9 Oeste 14 Oeste 0 -- -- 60
2019-11-13 19:00:00 17.8 10 Oeste 16 Oeste 0 -- -- 58
2019-11-13 18:00:00 20.8 11 Oeste 24 Sudoeste 0 -- -- 48
2019-11-13 17:00:00 22.2 12 Oeste 28 Sudoeste 0 -- -- 44
2019-11-13 16:00:00 22 14 Sudoeste 28 Oeste 0 -- -- 43
2019-11-13 15:00:00 21.8 18 Oeste 30 Oeste 0 -- -- 47
2019-11-13 14:00:00 19.8 17 Oeste 28 Oeste 0 -- -- 60
2019-11-13 13:00:00 19.2 19 Oeste 39 Oeste 0 -- -- 65
2019-11-13 12:00:00 18.6 31 Oeste 43 Oeste 0 -- -- 66
2019-11-13 11:00:00 17.3 27 Oeste 42 Oeste 0 -- -- 70
2019-11-13 10:00:00 15.2 19 Oeste 29 Oeste 0 -- -- 78
2019-11-13 09:00:00 14.5 16 Sudoeste 29 Sudoeste 0 -- -- 81
2019-11-13 08:00:00 14.6 19 Oeste 33 Sudoeste 0 -- -- 79
2019-11-13 07:00:00 14.3 19 Sudoeste 32 Oeste 0 -- -- 79
2019-11-13 06:00:00 14.1 19 Sudoeste 29 Sudoeste 0 -- -- 78
2019-11-13 05:00:00 14 18 Oeste 32 Sudoeste 0 -- -- 76
2019-11-13 04:00:00 13.8 20 Sudoeste 29 Sudoeste 0 -- -- 74
2019-11-13 03:00:00 13.3 12 Oeste 22 Oeste 0 -- -- 74
2019-11-13 02:00:00 13.5 12 Sudoeste 21 Oeste 0 -- -- 70
2019-11-13 01:00:00 13.7 17 Oeste 28 Oeste 0 -- -- 65
2019-11-13 00:00:00 12.5 7 Sudoeste 14 Oeste 0 -- -- 65
2019-11-12 23:00:00 12.9 9 Oeste 19 Oeste 0 -- -- 60
2019-11-12 22:00:00 13.6 13 Oeste 17 Oeste 0 -- -- 55
2019-11-12 21:00:00 13.3 6 Oeste 14 Noroeste 0 -- -- 56
2019-11-12 20:00:00 13.9 9 Oeste 15 Norte 0 -- -- 52
2019-11-12 19:00:00 15.6 8 Norte 13 Norte 0 -- -- 46
2019-11-12 18:00:00 18.7 6 Norte 23 Norte 0 -- -- 38
2019-11-12 17:00:00 20.2 15 Noroeste 28 Noroeste 0 -- -- 30
2019-11-12 16:00:00 20.6 17 Norte 31 Noroeste 0 -- -- 28
2019-11-12 15:00:00 20.8 15 Norte 29 Norte 0 -- -- 32
2019-11-12 14:00:00 19.4 7 Noroeste 31 Noroeste 0 -- -- 39
2019-11-12 13:00:00 18.7 4 Norte 14 Norte 0 -- -- 42
2019-11-12 12:00:00 16.5 5 Norte 10 Norte 0 -- -- 54
2019-11-12 11:00:00 14.6 3 Norte 8 Noroeste 0 -- -- 67
2019-11-12 10:00:00 10.6 4 Este 9 Este 0 -- -- 89
2019-11-12 09:00:00 8.4 2 Sudeste 6 Sur 0 -- -- 89
2019-11-12 08:00:00 8.2 5 Este 6 Este 0 -- -- 87
2019-11-12 07:00:00 9.1 5 Este 14 Norte 0 -- -- 87
2019-11-12 06:00:00 9.6 10 Norte 17 Norte 0 -- -- 88
2019-11-12 05:00:00 9.6 5 Norte 12 Norte 0 -- -- 89
2019-11-12 04:00:00 9 2 Sur 8 Este 0 -- -- 88
2019-11-12 03:00:00 9.5 5 Este 9 Nordeste 0 -- -- 88
2019-11-12 02:00:00 10.4 7 Nordeste 10 Nordeste 0 -- -- 88
2019-11-12 01:00:00 10.8 3 Sur 8 Nordeste 0 -- -- 86
2019-11-12 00:00:00 11.9 4 Este 14 Este 0 -- -- 84
2019-11-11 23:00:00 12.6 10 Este 14 Este 0 -- -- 83
2019-11-11 22:00:00 13.2 6 Este 13 Este 0 -- -- 81
2019-11-11 21:00:00 14.1 6 Sudeste 11 Este 0 -- -- 80
2019-11-11 20:00:00 15.6 7 Este 10 Nordeste 0 -- -- 77
2019-11-11 19:00:00 16.5 5 Sudeste 6 Sudeste 0 -- -- 73
2019-11-11 18:00:00 17.6 0 Calma 10 Sudoeste 0 -- -- 72
2019-11-11 17:00:00 17.6 7 Sudoeste 14 Sudoeste 0 -- -- 71
2019-11-11 16:00:00 17.3 10 Sudoeste 18 Sudoeste 0 -- -- 68
2019-11-11 15:00:00 17 12 Oeste 18 Sudoeste 0 -- -- 68
2019-11-11 14:00:00 16.7 8 Oeste 13 Sudoeste 0 -- -- 67
2019-11-11 13:00:00 15.8 6 Oeste 12 Oeste 0 -- -- 68
2019-11-11 12:00:00 15.2 7 Sudoeste 13 Oeste 0 -- -- 68
2019-11-11 11:00:00 14.1 6 Sudoeste 10 Sudoeste 0 -- -- 73
2019-11-11 10:00:00 13.1 3 Sudeste 4 Sudeste 0 -- -- 77
2019-11-11 09:00:00 12.6 4 Oeste 6 Oeste 0 -- -- 80
2019-11-11 08:00:00 12.4 3 Sur 6 Sur 0 -- -- 78
2019-11-11 07:00:00 12.5 3 Sur 6 Sur 0 -- -- 76
2019-11-11 06:00:00 12.3 2 Sur 12 Noroeste 0 -- -- 76
2019-11-11 05:00:00 13 5 Noroeste 15 Noroeste 0 -- -- 70
2019-11-11 04:00:00 13.2 9 Noroeste 17 Noroeste 0 -- -- 67
2019-11-11 03:00:00 13.6 9 Noroeste 15 Noroeste 0 -- -- 63
2019-11-11 02:00:00 13.5 8 Oeste 18 Oeste 0 -- -- 65
2019-11-11 01:00:00 13.8 9 Oeste 15 Oeste 0 -- -- 61
2019-11-11 00:00:00 14.1 10 Oeste 21 Oeste 0 -- -- 58
2019-11-10 23:00:00 13.8 11 Noroeste 17 Noroeste 0 -- -- 58
2019-11-10 22:00:00 13.8 10 Oeste 14 Oeste 0 -- -- 57
2019-11-10 21:00:00 14.5 10 Noroeste 24 Noroeste 0 -- -- 53
2019-11-10 20:00:00 14.7 18 Noroeste 35 Oeste 0 -- -- 51
2019-11-10 19:00:00 15.1 9 Noroeste 28 Noroeste 0 -- -- 50
2019-11-10 18:00:00 15.3 16 Norte 25 Norte 0 -- -- 47
2019-11-10 17:00:00 15.7 15 Norte 40 Noroeste 0 -- -- 46
2019-11-10 16:00:00 16.5 27 Noroeste 41 Norte 0 -- -- 41
2019-11-10 15:00:00 18.2 20 Noroeste 39 Noroeste 0 -- -- 32
2019-11-10 14:00:00 17.9 22 Noroeste 36 Noroeste 0 -- -- 34
2019-11-10 13:00:00 18.3 19 Noroeste 35 Norte 0 -- -- 36
2019-11-10 12:00:00 17.4 20 Noroeste 33 Noroeste 0 -- -- 38
2019-11-10 11:00:00 15.3 11 Noroeste 19 Noroeste 0 -- -- 51
2019-11-10 10:00:00 12.5 6 Noroeste 15 Oeste 0 -- -- 67
2019-11-10 09:00:00 10.4 8 Oeste 14 Oeste 0 -- -- 76
2019-11-10 08:00:00 9.9 5 Oeste 10 Oeste 0 -- -- 77
2019-11-10 07:00:00 9.9 0 Calma 9 Oeste 0 -- -- 76
2019-11-10 06:00:00 11 5 Sudoeste 12 Oeste 0 -- -- 73
2019-11-10 05:00:00 11.9 6 Noroeste 15 Noroeste 0 -- -- 69
2019-11-10 04:00:00 12.6 5 Noroeste 21 Noroeste 0 -- -- 68
2019-11-10 03:00:00 12.9 9 Noroeste 21 Oeste 0 -- -- 82
2019-11-10 02:00:00 14.2 13 Oeste 24 Oeste 0 -- -- 79
2019-11-10 01:00:00 14.7 14 Oeste 28 Sudoeste 0 -- -- 74
2019-11-10 00:00:00 15.1 18 Oeste 28 Sudoeste 0 -- -- 67
2019-11-09 23:00:00 15.2 14 Oeste 25 Sudoeste 0 -- -- 64
2019-11-09 22:00:00 15.5 12 Sudoeste 19 Sudoeste 0 -- -- 58
2019-11-09 21:00:00 15.6 10 Sudoeste 15 Sudoeste 0 -- -- 55
2019-11-09 20:00:00 15.1 8 Sudoeste 15 Sudoeste 0 -- -- 48
2019-11-09 19:00:00 15.7 10 Sudoeste 19 Sudoeste 0 -- -- 44
2019-11-09 18:00:00 17.5 9 Sudoeste 18 Sudoeste 0 -- -- 38
2019-11-09 17:00:00 18.2 10 Sudoeste 21 Sudoeste 0 -- -- 37
2019-11-09 16:00:00 18.5 10 Sudoeste 20 Sudoeste 0 -- -- 36
2019-11-09 15:00:00 17.8 9 Sudoeste 20 Sudoeste 0 -- -- 38
2019-11-09 14:00:00 16.9 8 Sudoeste 20 Oeste 0 -- -- 40
2019-11-09 13:00:00 15.9 5 Noroeste 12 Oeste 0 -- -- 43
2019-11-09 12:00:00 14.9 3 Este 9 Noroeste 0 -- -- 46
2019-11-09 11:00:00 12.8 0 Calma 6 Norte 0 -- -- 57
2019-11-09 10:00:00 10.3 4 Nordeste 8 Nordeste 0 -- -- 66
2019-11-09 09:00:00 6.3 4 Norte 8 Norte 0 -- -- 84
2019-11-09 08:00:00 4.6 5 Norte 7 Norte 0 -- -- 83
2019-11-09 07:00:00 4.5 3 Este 5 Norte 0 -- -- 82
2019-11-09 06:00:00 5.3 3 Noroeste 5 Sur 0 -- -- 79
2019-11-09 05:00:00 5.6 0 Calma 9 Norte 0 -- -- 79
2019-11-09 04:00:00 5.7 9 Norte 10 Norte 0 -- -- 79
2019-11-09 03:00:00 5.8 3 Este 8 Este 0 -- -- 77
2019-11-09 02:00:00 6.9 6 Este 8 Este 0 -- -- 71
2019-11-09 01:00:00 7.5 5 Sur 9 Sur 0 -- -- 71
2019-11-09 00:00:00 8 0 Calma 4 Oeste 0 -- -- 68
2019-11-08 23:00:00 9 2 Oeste 6 Sudoeste 0 -- -- 64
2019-11-08 22:00:00 10 5 Noroeste 10 Noroeste 0 -- -- 56
2019-11-08 21:00:00 11.5 10 Noroeste 12 Noroeste 0 -- -- 50
2019-11-08 20:00:00 12.2 9 Norte 13 Norte 0 -- -- 46
2019-11-08 19:00:00 14 6 Nordeste 14 Norte 0 -- -- 40
2019-11-08 18:00:00 17.3 10 Norte 21 Norte 0 -- -- 32
2019-11-08 17:00:00 19.1 11 Noroeste 27 Noroeste 0 -- -- 27
2019-11-08 16:00:00 19.1 15 Norte 31 Noroeste 0 -- -- 27
2019-11-08 15:00:00 18.7 11 Noroeste 31 Norte 0 -- -- 28
2019-11-08 14:00:00 18.1 16 Noroeste 31 Noroeste 0 -- -- 30
2019-11-08 13:00:00 17.3 19 Norte 31 Noroeste 0 -- -- 36
2019-11-08 12:00:00 16.3 16 Noroeste 28 Norte 0 -- -- 38
2019-11-08 11:00:00 14.2 13 Oeste 21 Oeste 0 -- -- 58
2019-11-08 10:00:00 12.5 10 Oeste 15 Oeste 0 -- -- 68
2019-11-08 09:00:00 9.9 8 Oeste 19 Oeste 0 -- -- 80
2019-11-08 08:00:00 7.9 10 Oeste 17 Oeste 0 -- -- 86
2019-11-08 07:00:00 8.9 9 Oeste 17 Sudoeste 0 -- -- 80
2019-11-08 06:00:00 9.2 10 Sudoeste 15 Sudoeste 0 -- -- 78
2019-11-08 05:00:00 9.4 9 Sudoeste 14 Sudoeste 0 -- -- 76
2019-11-08 04:00:00 9.8 10 Sudoeste 15 Sudoeste 0 -- -- 73
2019-11-08 03:00:00 10.5 8 Oeste 21 Oeste 0 -- -- 69
2019-11-08 02:00:00 10.3 11 Oeste 17 Sudoeste 0 -- -- 71
2019-11-08 01:00:00 10.7 9 Sudoeste 15 Oeste 0 -- -- 67
2019-11-08 00:00:00 10.6 9 Oeste 14 Oeste 0 -- -- 67
2019-11-07 23:00:00 12.2 10 Oeste 17 Oeste 0 -- -- 58
2019-11-07 22:00:00 12.5 10 Oeste 18 Oeste 0 -- -- 57
2019-11-07 21:00:00 13 11 Noroeste 18 Oeste 0 -- -- 54
2019-11-07 20:00:00 13.4 4 Oeste 16 Norte 0 -- -- 55
2019-11-07 19:00:00 16.1 15 Noroeste 27 Norte 0 -- -- 45
2019-11-07 18:00:00 18.7 10 Norte 22 Norte 0 -- -- 40
2019-11-07 17:00:00 20.1 11 Noroeste 26 Norte 0 -- -- 37
2019-11-07 16:00:00 20.3 19 Noroeste 31 Noroeste 0 -- -- 36
2019-11-07 15:00:00 20.2 20 Noroeste 33 Noroeste 0 -- -- 41
2019-11-07 14:00:00 19.4 22 Noroeste 35 Noroeste 0 -- -- 48
2019-11-07 13:00:00 17 5 Oeste 11 Noroeste 0 -- -- 82
2019-11-07 12:00:00 15.7 6 Oeste 17 Oeste 0 -- -- 90
2019-11-07 11:00:00 14.6 10 Oeste 17 Oeste 0.2 -- -- 90
2019-11-07 10:00:00 14 12 Sudoeste 18 Sudoeste 0.4 -- -- 90
2019-11-07 09:00:00 13.5 8 Sudoeste 15 Sudoeste 0.2 -- -- 89
2019-11-07 08:00:00 13.5 9 Sudoeste 16 Sudoeste 0 -- -- 89
2019-11-07 07:00:00 13.4 7 Sudoeste 13 Sudoeste 0.8 -- -- 88
2019-11-07 06:00:00 13.3 6 Sudoeste 13 Sudoeste 0.2 -- -- 85
2019-11-07 05:00:00 13.9 8 Sudoeste 13 Sudoeste 0 -- -- 74
2019-11-07 04:00:00 14 9 Sudoeste 14 Sudoeste 0 -- -- 71
2019-11-07 03:00:00 13.5 8 Sudoeste 13 Sudoeste 0 -- -- 70
2019-11-07 02:00:00 13.5 8 Sudoeste 12 Sudoeste 0 -- -- 69
2019-11-07 01:00:00 13.6 6 Sudoeste 12 Oeste 0 -- -- 68
2019-11-07 00:00:00 14.3 8 Oeste 16 Oeste 0 -- -- 65
2019-11-06 23:00:00 14.1 13 Oeste 15 Oeste 0 -- -- 66
2019-11-06 22:00:00 14.7 8 Oeste 12 Oeste 0 -- -- 62
2019-11-06 21:00:00 15.4 5 Noroeste 17 Oeste 0 -- -- 58
2019-11-06 20:00:00 16.4 8 Oeste 14 Noroeste 0 -- -- 55
2019-11-06 19:00:00 18.1 10 Noroeste 18 Noroeste 0 -- -- 50
2019-11-06 18:00:00 19.3 7 Sudoeste 14 Sudoeste 0 -- -- 43
2019-11-06 17:00:00 20.3 9 Oeste 20 Sudoeste 0 -- -- 41
2019-11-06 16:00:00 20.5 11 Oeste 23 Oeste 0 -- -- 38
2019-11-06 15:00:00 20.1 15 Oeste 26 Sudoeste 0 -- -- 40
2019-11-06 14:00:00 18.7 13 Oeste 25 Sudoeste 0 -- -- 47
2019-11-06 13:00:00 17.7 12 Oeste 22 Oeste 0 -- -- 50
2019-11-06 12:00:00 16.4 9 Oeste 17 Oeste 0 -- -- 56
2019-11-06 11:00:00 15 5 Noroeste 12 Noroeste 0 -- -- 63
2019-11-06 10:00:00 12.4 4 Noroeste 7 Noroeste 0 -- -- 76
2019-11-06 09:00:00 9.2 2 Norte 6 Oeste 0 -- -- 86
2019-11-06 08:00:00 8 4 Sudoeste 8 Sur 0 -- -- 86
2019-11-06 07:00:00 8.3 4 Noroeste 11 Sur 0 -- -- 83
2019-11-06 06:00:00 8.9 5 Sur 9 Sur 0 -- -- 82
2019-11-06 05:00:00 9.2 3 Sur 6 Sudoeste 0 -- -- 80
2019-11-06 04:00:00 11.1 4 Oeste 8 Sudoeste 0 -- -- 76
2019-11-06 03:00:00 10.3 5 Sudoeste 6 Sudoeste 0 -- -- 78
2019-11-06 02:00:00 11.7 5 Oeste 13 Oeste 0 -- -- 73
2019-11-06 01:00:00 12.1 10 Oeste 15 Oeste 0 -- -- 72
2019-11-06 00:00:00 13.1 8 Oeste 15 Oeste 0 -- -- 70